sensor_id;sensor_type;location;lat;lon;timestamp;P1;durP1;ratioP1;P2;durP2;ratioP2
13463;SDS011;6804;48.774;9.174;2023-12-20T00:00:37;1.50;;;1.40;;
13463;SDS011;6804;48.774;9.174;2023-12-20T00:03:05;1.40;;;1.20;;
13463;SDS011;6804;48.774;9.174;2023-12-20T00:05:36;2.00;;;1.30;;
13463;SDS011;6804;48.774;9.174;2023-12-20T00:08:06;1.70;;;1.20;;
13463;SDS011;6804;48.774;9.174;2023-12-20T00:10:33;2.57;;;1.30;;
13463;SDS011;6804;48.774;9.174;2023-12-20T00:13:01;1.20;;;1.10;;
13463;SDS011;6804;48.774;9.174;2023-12-20T00:15:29;1.13;;;1.00;;
13463;SDS011;6804;48.774;9.174;2023-12-20T00:18:06;1.50;;;1.10;;
13463;SDS011;6804;48.774;9.174;2023-12-20T00:20:33;1.00;;;0.90;;
13463;SDS011;6804;48.774;9.174;2023-12-20T00:23:02;1.13;;;0.93;;
13463;SDS011;6804;48.774;9.174;2023-12-20T00:25:34;1.07;;;0.90;;
13463;SDS011;6804;48.774;9.174;2023-12-20T00:28:03;2.80;;;1.10;;
13463;SDS011;6804;48.774;9.174;2023-12-20T00:30:33;1.50;;;1.10;;
13463;SDS011;6804;48.774;9.174;2023-12-20T00:33:02;1.27;;;0.97;;
13463;SDS011;6804;48.774;9.174;2023-12-20T00:35:35;1.00;;;0.90;;
13463;SDS011;6804;48.774;9.174;2023-12-20T00:38:04;1.20;;;1.00;;
13463;SDS011;6804;48.774;9.174;2023-12-20T00:40:32;1.00;;;0.90;;
13463;SDS011;6804;48.774;9.174;2023-12-20T00:43:04;1.63;;;1.00;;
13463;SDS011;6804;48.774;9.174;2023-12-20T00:45:34;1.20;;;1.10;;
13463;SDS011;6804;48.774;9.174;2023-12-20T00:48:07;1.20;;;0.77;;
13463;SDS011;6804;48.774;9.174;2023-12-20T00:50:34;1.73;;;0.87;;
13463;SDS011;6804;48.774;9.174;2023-12-20T00:53:05;2.40;;;1.10;;
13463;SDS011;6804;48.774;9.174;2023-12-20T00:58:19;1.03;;;0.90;;
13463;SDS011;6804;48.774;9.174;2023-12-20T01:00:47;1.33;;;0.80;;
13463;SDS011;6804;48.774;9.174;2023-12-20T01:03:14;1.27;;;0.80;;
13463;SDS011;6804;48.774;9.174;2023-12-20T01:05:42;1.07;;;0.80;;
13463;SDS011;6804;48.774;9.174;2023-12-20T01:08:11;1.00;;;0.90;;
13463;SDS011;6804;48.774;9.174;2023-12-20T01:10:39;1.00;;;0.83;;
13463;SDS011;6804;48.774;9.174;2023-12-20T01:13:12;1.33;;;0.80;;
13463;SDS011;6804;48.774;9.174;2023-12-20T01:15:40;1.27;;;1.17;;
13463;SDS011;6804;48.774;9.174;2023-12-20T01:18:11;2.50;;;0.80;;
13463;SDS011;6804;48.774;9.174;2023-12-20T01:20:40;1.67;;;0.87;;
13463;SDS011;6804;48.774;9.174;2023-12-20T01:23:08;1.10;;;1.00;;
13463;SDS011;6804;48.774;9.174;2023-12-20T01:25:37;1.93;;;0.70;;
13463;SDS011;6804;48.774;9.174;2023-12-20T01:28:06;1.63;;;1.00;;
13463;SDS011;6804;48.774;9.174;2023-12-20T01:30:34;1.73;;;1.00;;
13463;SDS011;6804;48.774;9.174;2023-12-20T01:33:06;0.70;;;0.70;;
13463;SDS011;6804;48.774;9.174;2023-12-20T01:35:34;1.20;;;0.90;;
13463;SDS011;6804;48.774;9.174;2023-12-20T01:38:08;0.70;;;0.70;;
13463;SDS011;6804;48.774;9.174;2023-12-20T01:40:35;1.10;;;0.90;;
13463;SDS011;6804;48.774;9.174;2023-12-20T01:43:08;0.90;;;0.90;;
13463;SDS011;6804;48.774;9.174;2023-12-20T01:45:38;1.10;;;0.87;;
13463;SDS011;6804;48.774;9.174;2023-12-20T01:48:08;1.00;;;0.90;;
13463;SDS011;6804;48.774;9.174;2023-12-20T01:50:39;0.90;;;0.77;;
13463;SDS011;6804;48.774;9.174;2023-12-20T01:53:08;1.00;;;0.90;;
13463;SDS011;6804;48.774;9.174;2023-12-20T01:55:43;1.23;;;0.80;;
13463;SDS011;6804;48.774;9.174;2023-12-20T01:58:16;1.20;;;0.83;;
13463;SDS011;6804;48.774;9.174;2023-12-20T02:00:48;1.07;;;0.90;;
13463;SDS011;6804;48.774;9.174;2023-12-20T02:03:16;1.00;;;0.90;;
13463;SDS011;6804;48.774;9.174;2023-12-20T02:05:51;1.00;;;0.80;;
13463;SDS011;6804;48.774;9.174;2023-12-20T02:08:19;1.27;;;0.97;;
13463;SDS011;6804;48.774;9.174;2023-12-20T02:10:48;1.00;;;0.90;;
13463;SDS011;6804;48.774;9.174;2023-12-20T02:13:17;1.73;;;0.90;;
13463;SDS011;6804;48.774;9.174;2023-12-20T02:15:48;1.20;;;0.90;;
13463;SDS011;6804;48.774;9.174;2023-12-20T02:18:19;1.00;;;0.90;;
13463;SDS011;6804;48.774;9.174;2023-12-20T02:20:49;1.97;;;1.10;;
13463;SDS011;6804;48.774;9.174;2023-12-20T02:23:18;1.20;;;0.90;;
13463;SDS011;6804;48.774;9.174;2023-12-20T02:25:48;1.90;;;1.17;;
13463;SDS011;6804;48.774;9.174;2023-12-20T02:28:15;1.93;;;1.10;;
13463;SDS011;6804;48.774;9.174;2023-12-20T02:30:43;1.33;;;0.80;;
13463;SDS011;6804;48.774;9.174;2023-12-20T02:33:11;1.20;;;1.00;;
13463;SDS011;6804;48.774;9.174;2023-12-20T02:35:41;1.10;;;0.77;;
13463;SDS011;6804;48.774;9.174;2023-12-20T02:38:08;1.77;;;1.00;;
13463;SDS011;6804;48.774;9.174;2023-12-20T02:40:39;1.17;;;0.97;;
13463;SDS011;6804;48.774;9.174;2023-12-20T02:43:07;1.20;;;0.90;;
13463;SDS011;6804;48.774;9.174;2023-12-20T02:45:37;2.00;;;0.90;;
13463;SDS011;6804;48.774;9.174;2023-12-20T02:48:10;1.47;;;1.00;;
13463;SDS011;6804;48.774;9.174;2023-12-20T02:50:39;1.17;;;1.00;;
13463;SDS011;6804;48.774;9.174;2023-12-20T02:53:06;0.80;;;0.80;;
13463;SDS011;6804;48.774;9.174;2023-12-20T02:55:33;1.10;;;1.00;;
13463;SDS011;6804;48.774;9.174;2023-12-20T02:58:01;1.37;;;0.80;;
13463;SDS011;6804;48.774;9.174;2023-12-20T03:00:29;1.73;;;0.80;;
13463;SDS011;6804;48.774;9.174;2023-12-20T03:02:57;2.23;;;1.00;;
13463;SDS011;6804;48.774;9.174;2023-12-20T03:05:27;1.47;;;1.10;;
13463;SDS011;6804;48.774;9.174;2023-12-20T03:07:55;1.43;;;1.20;;
13463;SDS011;6804;48.774;9.174;2023-12-20T03:10:25;2.50;;;1.10;;
13463;SDS011;6804;48.774;9.174;2023-12-20T03:12:55;2.07;;;1.10;;
13463;SDS011;6804;48.774;9.174;2023-12-20T03:15:24;1.50;;;0.90;;
13463;SDS011;6804;48.774;9.174;2023-12-20T03:17:54;2.33;;;1.20;;
13463;SDS011;6804;48.774;9.174;2023-12-20T03:20:25;2.23;;;1.07;;
13463;SDS011;6804;48.774;9.174;2023-12-20T03:22:53;0.90;;;0.90;;
13463;SDS011;6804;48.774;9.174;2023-12-20T03:25:21;1.50;;;1.00;;
13463;SDS011;6804;48.774;9.174;2023-12-20T03:27:48;0.77;;;0.77;;
13463;SDS011;6804;48.774;9.174;2023-12-20T03:30:16;1.50;;;1.00;;
13463;SDS011;6804;48.774;9.174;2023-12-20T03:32:45;1.93;;;0.97;;
13463;SDS011;6804;48.774;9.174;2023-12-20T03:35:13;0.87;;;0.70;;
13463;SDS011;6804;48.774;9.174;2023-12-20T03:37:40;1.70;;;0.80;;
13463;SDS011;6804;48.774;9.174;2023-12-20T03:40:08;1.37;;;0.60;;
13463;SDS011;6804;48.774;9.174;2023-12-20T03:42:38;1.13;;;0.53;;
13463;SDS011;6804;48.774;9.174;2023-12-20T03:45:09;0.50;;;0.50;;
13463;SDS011;6804;48.774;9.174;2023-12-20T03:47:39;1.23;;;0.50;;
13463;SDS011;6804;48.774;9.174;2023-12-20T03:50:08;0.73;;;0.40;;
13463;SDS011;6804;48.774;9.174;2023-12-20T03:52:38;0.60;;;0.50;;
13463;SDS011;6804;48.774;9.174;2023-12-20T03:55:09;0.50;;;0.50;;
13463;SDS011;6804;48.774;9.174;2023-12-20T03:57:37;0.33;;;0.33;;
13463;SDS011;6804;48.774;9.174;2023-12-20T04:00:11;0.50;;;0.50;;
13463;SDS011;6804;48.774;9.174;2023-12-20T04:02:39;1.30;;;0.20;;
13463;SDS011;6804;48.774;9.174;2023-12-20T04:05:12;0.40;;;0.40;;
13463;SDS011;6804;48.774;9.174;2023-12-20T04:07:39;0.20;;;0.20;;
13463;SDS011;6804;48.774;9.174;2023-12-20T04:10:07;0.30;;;0.30;;
13463;SDS011;6804;48.774;9.174;2023-12-20T04:12:35;0.40;;;0.30;;
13463;SDS011;6804;48.774;9.174;2023-12-20T04:15:05;0.10;;;0.10;;
13463;SDS011;6804;48.774;9.174;2023-12-20T04:17:34;0.30;;;0.30;;
13463;SDS011;6804;48.774;9.174;2023-12-20T04:20:03;0.20;;;0.20;;
13463;SDS011;6804;48.774;9.174;2023-12-20T04:22:33;0.60;;;0.33;;
13463;SDS011;6804;48.774;9.174;2023-12-20T04:25:00;0.27;;;0.27;;
13463;SDS011;6804;48.774;9.174;2023-12-20T04:27:28;0.30;;;0.20;;
13463;SDS011;6804;48.774;9.174;2023-12-20T04:29:54;0.20;;;0.20;;
13463;SDS011;6804;48.774;9.174;2023-12-20T04:32:21;0.30;;;0.30;;
13463;SDS011;6804;48.774;9.174;2023-12-20T04:34:52;0.33;;;0.20;;
13463;SDS011;6804;48.774;9.174;2023-12-20T04:37:22;0.30;;;0.30;;
13463;SDS011;6804;48.774;9.174;2023-12-20T04:39:50;0.73;;;0.30;;
13463;SDS011;6804;48.774;9.174;2023-12-20T04:42:21;0.20;;;0.20;;
13463;SDS011;6804;48.774;9.174;2023-12-20T04:44:48;0.43;;;0.30;;
13463;SDS011;6804;48.774;9.174;2023-12-20T04:47:16;0.30;;;0.30;;
13463;SDS011;6804;48.774;9.174;2023-12-20T04:49:48;0.60;;;0.23;;
13463;SDS011;6804;48.774;9.174;2023-12-20T04:52:21;0.23;;;0.20;;
13463;SDS011;6804;48.774;9.174;2023-12-20T04:54:50;0.30;;;0.20;;
13463;SDS011;6804;48.774;9.174;2023-12-20T05:00:04;0.20;;;0.20;;
13463;SDS011;6804;48.774;9.174;2023-12-20T05:02:33;0.70;;;0.40;;
13463;SDS011;6804;48.774;9.174;2023-12-20T05:05:03;0.30;;;0.30;;
13463;SDS011;6804;48.774;9.174;2023-12-20T05:07:34;0.40;;;0.40;;
13463;SDS011;6804;48.774;9.174;2023-12-20T05:10:03;1.23;;;0.40;;
13463;SDS011;6804;48.774;9.174;2023-12-20T05:12:32;0.37;;;0.37;;
13463;SDS011;6804;48.774;9.174;2023-12-20T05:15:00;0.50;;;0.37;;
13463;SDS011;6804;48.774;9.174;2023-12-20T05:17:29;1.77;;;0.50;;
13463;SDS011;6804;48.774;9.174;2023-12-20T05:19:57;0.27;;;0.20;;
13463;SDS011;6804;48.774;9.174;2023-12-20T05:22:33;0.20;;;0.20;;
13463;SDS011;6804;48.774;9.174;2023-12-20T05:25:03;0.50;;;0.30;;
13463;SDS011;6804;48.774;9.174;2023-12-20T05:27:33;1.13;;;0.40;;
13463;SDS011;6804;48.774;9.174;2023-12-20T05:30:04;0.87;;;0.30;;
13463;SDS011;6804;48.774;9.174;2023-12-20T05:32:35;0.77;;;0.23;;
13463;SDS011;6804;48.774;9.174;2023-12-20T05:35:03;2.30;;;0.30;;
13463;SDS011;6804;48.774;9.174;2023-12-20T05:37:30;0.57;;;0.50;;
13463;SDS011;6804;48.774;9.174;2023-12-20T05:39:58;0.30;;;0.30;;
13463;SDS011;6804;48.774;9.174;2023-12-20T05:42:28;0.13;;;0.13;;
13463;SDS011;6804;48.774;9.174;2023-12-20T05:45:05;0.53;;;0.53;;
13463;SDS011;6804;48.774;9.174;2023-12-20T05:47:34;0.47;;;0.40;;
13463;SDS011;6804;48.774;9.174;2023-12-20T05:50:05;0.60;;;0.30;;
13463;SDS011;6804;48.774;9.174;2023-12-20T05:55:26;0.83;;;0.30;;
13463;SDS011;6804;48.774;9.174;2023-12-20T05:57:55;0.53;;;0.37;;
13463;SDS011;6804;48.774;9.174;2023-12-20T06:00:22;0.50;;;0.30;;
13463;SDS011;6804;48.774;9.174;2023-12-20T06:02:50;0.70;;;0.50;;
13463;SDS011;6804;48.774;9.174;2023-12-20T06:08:04;0.63;;;0.47;;
13463;SDS011;6804;48.774;9.174;2023-12-20T06:10:34;0.63;;;0.40;;
13463;SDS011;6804;48.774;9.174;2023-12-20T06:13:06;0.43;;;0.40;;
13463;SDS011;6804;48.774;9.174;2023-12-20T06:15:35;0.87;;;0.40;;
13463;SDS011;6804;48.774;9.174;2023-12-20T06:18:04;0.50;;;0.40;;
13463;SDS011;6804;48.774;9.174;2023-12-20T06:20:32;0.87;;;0.70;;
13463;SDS011;6804;48.774;9.174;2023-12-20T06:22:59;0.40;;;0.40;;
13463;SDS011;6804;48.774;9.174;2023-12-20T06:25:30;0.80;;;0.40;;
13463;SDS011;6804;48.774;9.174;2023-12-20T06:30:35;0.60;;;0.60;;
13463;SDS011;6804;48.774;9.174;2023-12-20T06:33:06;1.33;;;0.60;;
13463;SDS011;6804;48.774;9.174;2023-12-20T06:35:37;1.17;;;0.60;;
13463;SDS011;6804;48.774;9.174;2023-12-20T06:38:05;0.97;;;0.60;;
13463;SDS011;6804;48.774;9.174;2023-12-20T06:40:34;1.80;;;0.90;;
13463;SDS011;6804;48.774;9.174;2023-12-20T06:43:09;2.07;;;1.17;;
13463;SDS011;6804;48.774;9.174;2023-12-20T06:45:38;0.60;;;0.50;;
13463;SDS011;6804;48.774;9.174;2023-12-20T06:48:06;0.90;;;0.60;;
13463;SDS011;6804;48.774;9.174;2023-12-20T06:50:33;1.13;;;0.80;;
13463;SDS011;6804;48.774;9.174;2023-12-20T06:53:05;0.97;;;0.80;;
13463;SDS011;6804;48.774;9.174;2023-12-20T06:55:34;1.43;;;0.73;;
13463;SDS011;6804;48.774;9.174;2023-12-20T06:58:04;0.50;;;0.50;;
13463;SDS011;6804;48.774;9.174;2023-12-20T07:00:34;1.60;;;0.83;;
13463;SDS011;6804;48.774;9.174;2023-12-20T07:08:45;0.50;;;0.50;;
13463;SDS011;6804;48.774;9.174;2023-12-20T07:11:13;1.10;;;0.73;;
13463;SDS011;6804;48.774;9.174;2023-12-20T07:13:46;0.90;;;0.50;;
13463;SDS011;6804;48.774;9.174;2023-12-20T07:16:18;1.27;;;0.80;;
13463;SDS011;6804;48.774;9.174;2023-12-20T07:18:47;1.00;;;0.80;;
13463;SDS011;6804;48.774;9.174;2023-12-20T07:21:15;0.87;;;0.70;;
13463;SDS011;6804;48.774;9.174;2023-12-20T07:23:45;0.70;;;0.70;;
13463;SDS011;6804;48.774;9.174;2023-12-20T07:26:16;0.73;;;0.50;;
13463;SDS011;6804;48.774;9.174;2023-12-20T07:28:47;1.67;;;0.73;;
13463;SDS011;6804;48.774;9.174;2023-12-20T07:31:15;1.57;;;0.73;;
13463;SDS011;6804;48.774;9.174;2023-12-20T07:33:46;1.60;;;0.80;;
13463;SDS011;6804;48.774;9.174;2023-12-20T07:36:14;1.27;;;0.70;;
13463;SDS011;6804;48.774;9.174;2023-12-20T07:38:42;0.80;;;0.80;;
13463;SDS011;6804;48.774;9.174;2023-12-20T07:41:11;2.90;;;0.90;;
13463;SDS011;6804;48.774;9.174;2023-12-20T07:43:42;1.63;;;1.10;;
13463;SDS011;6804;48.774;9.174;2023-12-20T07:46:15;1.20;;;1.10;;
13463;SDS011;6804;48.774;9.174;2023-12-20T07:48:51;2.13;;;1.40;;
13463;SDS011;6804;48.774;9.174;2023-12-20T07:51:21;1.43;;;1.30;;
13463;SDS011;6804;48.774;9.174;2023-12-20T07:53:52;3.57;;;1.77;;
13463;SDS011;6804;48.774;9.174;2023-12-20T07:56:20;2.07;;;1.30;;
13463;SDS011;6804;48.774;9.174;2023-12-20T07:58:47;2.73;;;1.53;;
13463;SDS011;6804;48.774;9.174;2023-12-20T08:01:15;1.70;;;1.43;;
13463;SDS011;6804;48.774;9.174;2023-12-20T08:03:45;1.93;;;1.50;;
13463;SDS011;6804;48.774;9.174;2023-12-20T08:06:14;2.33;;;1.30;;
13463;SDS011;6804;48.774;9.174;2023-12-20T08:08:46;3.13;;;1.43;;
13463;SDS011;6804;48.774;9.174;2023-12-20T08:11:16;2.97;;;1.63;;
13463;SDS011;6804;48.774;9.174;2023-12-20T08:13:50;1.50;;;1.40;;
13463;SDS011;6804;48.774;9.174;2023-12-20T08:16:17;3.23;;;1.97;;
13463;SDS011;6804;48.774;9.174;2023-12-20T08:18:46;2.50;;;1.50;;
13463;SDS011;6804;48.774;9.174;2023-12-20T08:21:16;2.87;;;1.77;;
13463;SDS011;6804;48.774;9.174;2023-12-20T08:23:49;2.57;;;1.50;;
13463;SDS011;6804;48.774;9.174;2023-12-20T08:26:18;3.87;;;2.10;;
13463;SDS011;6804;48.774;9.174;2023-12-20T08:28:48;1.60;;;1.50;;
13463;SDS011;6804;48.774;9.174;2023-12-20T08:31:19;1.50;;;1.40;;
13463;SDS011;6804;48.774;9.174;2023-12-20T08:33:48;1.93;;;1.50;;
13463;SDS011;6804;48.774;9.174;2023-12-20T08:36:20;2.03;;;1.30;;
13463;SDS011;6804;48.774;9.174;2023-12-20T08:38:49;2.53;;;1.60;;
13463;SDS011;6804;48.774;9.174;2023-12-20T08:41:17;2.97;;;1.60;;
13463;SDS011;6804;48.774;9.174;2023-12-20T08:43:48;2.60;;;1.50;;
13463;SDS011;6804;48.774;9.174;2023-12-20T08:46:17;2.20;;;2.00;;
13463;SDS011;6804;48.774;9.174;2023-12-20T08:48:49;1.60;;;1.50;;
13463;SDS011;6804;48.774;9.174;2023-12-20T08:51:16;1.63;;;1.40;;
13463;SDS011;6804;48.774;9.174;2023-12-20T08:53:48;3.57;;;1.90;;
13463;SDS011;6804;48.774;9.174;2023-12-20T08:56:19;2.03;;;1.70;;
13463;SDS011;6804;48.774;9.174;2023-12-20T08:58:50;2.73;;;1.73;;
13463;SDS011;6804;48.774;9.174;2023-12-20T09:01:17;2.37;;;1.70;;
13463;SDS011;6804;48.774;9.174;2023-12-20T09:03:48;2.17;;;1.50;;
13463;SDS011;6804;48.774;9.174;2023-12-20T09:06:19;2.30;;;2.10;;
13463;SDS011;6804;48.774;9.174;2023-12-20T09:08:49;3.60;;;1.90;;
13463;SDS011;6804;48.774;9.174;2023-12-20T09:11:19;1.87;;;1.70;;
13463;SDS011;6804;48.774;9.174;2023-12-20T09:13:47;1.70;;;1.60;;
13463;SDS011;6804;48.774;9.174;2023-12-20T09:16:17;1.90;;;1.40;;
13463;SDS011;6804;48.774;9.174;2023-12-20T09:18:51;2.40;;;1.77;;
13463;SDS011;6804;48.774;9.174;2023-12-20T09:21:19;2.80;;;1.80;;
13463;SDS011;6804;48.774;9.174;2023-12-20T09:23:52;2.80;;;1.80;;
13463;SDS011;6804;48.774;9.174;2023-12-20T09:26:20;2.93;;;1.47;;
13463;SDS011;6804;48.774;9.174;2023-12-20T09:28:48;4.40;;;1.60;;
13463;SDS011;6804;48.774;9.174;2023-12-20T09:31:17;2.20;;;1.83;;
13463;SDS011;6804;48.774;9.174;2023-12-20T09:33:53;2.80;;;1.23;;
13463;SDS011;6804;48.774;9.174;2023-12-20T09:36:21;2.93;;;1.67;;
13463;SDS011;6804;48.774;9.174;2023-12-20T09:38:49;3.03;;;1.40;;
13463;SDS011;6804;48.774;9.174;2023-12-20T09:41:23;3.30;;;1.40;;
13463;SDS011;6804;48.774;9.174;2023-12-20T09:43:57;2.20;;;1.20;;
13463;SDS011;6804;48.774;9.174;2023-12-20T09:46:30;3.20;;;1.43;;
13463;SDS011;6804;48.774;9.174;2023-12-20T09:49:02;3.23;;;1.70;;
13463;SDS011;6804;48.774;9.174;2023-12-20T09:51:30;1.90;;;1.20;;
13463;SDS011;6804;48.774;9.174;2023-12-20T09:53:59;3.40;;;1.13;;
13463;SDS011;6804;48.774;9.174;2023-12-20T09:56:31;4.37;;;1.50;;
13463;SDS011;6804;48.774;9.174;2023-12-20T09:59:02;3.00;;;1.50;;
13463;SDS011;6804;48.774;9.174;2023-12-20T10:01:31;3.70;;;1.50;;
13463;SDS011;6804;48.774;9.174;2023-12-20T10:04:02;4.50;;;1.60;;
13463;SDS011;6804;48.774;9.174;2023-12-20T10:06:39;5.00;;;1.73;;
13463;SDS011;6804;48.774;9.174;2023-12-20T10:09:11;3.33;;;1.27;;
13463;SDS011;6804;48.774;9.174;2023-12-20T10:11:44;1.70;;;1.37;;
13463;SDS011;6804;48.774;9.174;2023-12-20T10:14:13;2.93;;;1.30;;
13463;SDS011;6804;48.774;9.174;2023-12-20T10:16:43;5.80;;;1.37;;
13463;SDS011;6804;48.774;9.174;2023-12-20T10:19:11;5.07;;;1.30;;
13463;SDS011;6804;48.774;9.174;2023-12-20T10:21:39;3.63;;;1.50;;
13463;SDS011;6804;48.774;9.174;2023-12-20T10:24:10;3.63;;;1.63;;
13463;SDS011;6804;48.774;9.174;2023-12-20T10:26:46;4.70;;;1.60;;
13463;SDS011;6804;48.774;9.174;2023-12-20T10:29:14;4.43;;;1.27;;
13463;SDS011;6804;48.774;9.174;2023-12-20T10:31:41;2.63;;;1.30;;
13463;SDS011;6804;48.774;9.174;2023-12-20T10:34:12;5.53;;;2.07;;
13463;SDS011;6804;48.774;9.174;2023-12-20T10:36:41;3.03;;;1.90;;
13463;SDS011;6804;48.774;9.174;2023-12-20T10:41:42;2.73;;;1.20;;
13463;SDS011;6804;48.774;9.174;2023-12-20T10:44:15;3.60;;;1.53;;
13463;SDS011;6804;48.774;9.174;2023-12-20T10:46:46;4.30;;;1.27;;
13463;SDS011;6804;48.774;9.174;2023-12-20T10:49:23;3.43;;;1.50;;
13463;SDS011;6804;48.774;9.174;2023-12-20T10:51:54;3.13;;;1.23;;
13463;SDS011;6804;48.774;9.174;2023-12-20T10:54:22;4.73;;;1.73;;
13463;SDS011;6804;48.774;9.174;2023-12-20T10:56:53;3.17;;;1.40;;
13463;SDS011;6804;48.774;9.174;2023-12-20T10:59:26;3.27;;;1.60;;
13463;SDS011;6804;48.774;9.174;2023-12-20T11:01:57;4.37;;;1.70;;
13463;SDS011;6804;48.774;9.174;2023-12-20T11:04:35;3.10;;;1.70;;
13463;SDS011;6804;48.774;9.174;2023-12-20T11:07:13;2.43;;;1.17;;
13463;SDS011;6804;48.774;9.174;2023-12-20T11:09:49;4.93;;;1.90;;
13463;SDS011;6804;48.774;9.174;2023-12-20T11:12:28;4.20;;;2.40;;
13463;SDS011;6804;48.774;9.174;2023-12-20T11:15:07;3.13;;;1.30;;
13463;SDS011;6804;48.774;9.174;2023-12-20T11:17:35;5.20;;;1.40;;
13463;SDS011;6804;48.774;9.174;2023-12-20T11:20:07;3.00;;;1.43;;
13463;SDS011;6804;48.774;9.174;2023-12-20T11:22:39;3.17;;;1.60;;
13463;SDS011;6804;48.774;9.174;2023-12-20T11:25:21;3.53;;;1.57;;
13463;SDS011;6804;48.774;9.174;2023-12-20T11:30:47;2.53;;;1.60;;
13463;SDS011;6804;48.774;9.174;2023-12-20T11:33:18;3.23;;;1.33;;
13463;SDS011;6804;48.774;9.174;2023-12-20T11:35:55;5.00;;;1.80;;
13463;SDS011;6804;48.774;9.174;2023-12-20T11:38:25;3.93;;;1.40;;
13463;SDS011;6804;48.774;9.174;2023-12-20T11:40:53;1.53;;;1.20;;
13463;SDS011;6804;48.774;9.174;2023-12-20T11:43:34;2.20;;;1.00;;
13463;SDS011;6804;48.774;9.174;2023-12-20T11:46:05;3.17;;;1.40;;
13463;SDS011;6804;48.774;9.174;2023-12-20T11:48:35;3.50;;;1.80;;
13463;SDS011;6804;48.774;9.174;2023-12-20T11:51:08;4.37;;;1.77;;
13463;SDS011;6804;48.774;9.174;2023-12-20T11:53:37;4.87;;;1.60;;
13463;SDS011;6804;48.774;9.174;2023-12-20T11:56:06;2.60;;;1.50;;
13463;SDS011;6804;48.774;9.174;2023-12-20T11:58:36;5.03;;;1.70;;
13463;SDS011;6804;48.774;9.174;2023-12-20T12:01:06;4.80;;;1.50;;
13463;SDS011;6804;48.774;9.174;2023-12-20T12:03:36;3.07;;;1.57;;
13463;SDS011;6804;48.774;9.174;2023-12-20T12:06:06;3.43;;;1.70;;
13463;SDS011;6804;48.774;9.174;2023-12-20T12:08:34;2.77;;;1.27;;
13463;SDS011;6804;48.774;9.174;2023-12-20T12:11:04;4.77;;;2.00;;
13463;SDS011;6804;48.774;9.174;2023-12-20T12:13:32;5.20;;;1.90;;
13463;SDS011;6804;48.774;9.174;2023-12-20T12:16:03;4.00;;;1.73;;
13463;SDS011;6804;48.774;9.174;2023-12-20T12:18:36;1.73;;;1.20;;
13463;SDS011;6804;48.774;9.174;2023-12-20T12:21:07;2.53;;;1.50;;
13463;SDS011;6804;48.774;9.174;2023-12-20T12:23:35;4.53;;;2.03;;
13463;SDS011;6804;48.774;9.174;2023-12-20T12:26:06;5.73;;;1.63;;
13463;SDS011;6804;48.774;9.174;2023-12-20T12:28:35;4.83;;;2.10;;
13463;SDS011;6804;48.774;9.174;2023-12-20T12:31:03;8.00;;;2.73;;
13463;SDS011;6804;48.774;9.174;2023-12-20T12:33:36;5.57;;;2.80;;
13463;SDS011;6804;48.774;9.174;2023-12-20T12:36:06;2.87;;;1.80;;
13463;SDS011;6804;48.774;9.174;2023-12-20T12:38:37;5.43;;;1.90;;
13463;SDS011;6804;48.774;9.174;2023-12-20T12:41:06;5.43;;;1.90;;
13463;SDS011;6804;48.774;9.174;2023-12-20T12:43:36;3.57;;;1.80;;
13463;SDS011;6804;48.774;9.174;2023-12-20T12:46:04;4.57;;;1.73;;
13463;SDS011;6804;48.774;9.174;2023-12-20T12:48:33;4.37;;;1.70;;
13463;SDS011;6804;48.774;9.174;2023-12-20T12:51:10;5.63;;;2.20;;
13463;SDS011;6804;48.774;9.174;2023-12-20T12:53:39;4.27;;;2.10;;
13463;SDS011;6804;48.774;9.174;2023-12-20T12:56:10;4.10;;;1.83;;
13463;SDS011;6804;48.774;9.174;2023-12-20T12:58:40;5.50;;;1.70;;
13463;SDS011;6804;48.774;9.174;2023-12-20T13:01:10;4.93;;;2.13;;
13463;SDS011;6804;48.774;9.174;2023-12-20T13:03:39;5.10;;;1.83;;
13463;SDS011;6804;48.774;9.174;2023-12-20T13:06:11;4.03;;;1.80;;
13463;SDS011;6804;48.774;9.174;2023-12-20T13:08:44;2.60;;;1.90;;
13463;SDS011;6804;48.774;9.174;2023-12-20T13:11:12;5.30;;;2.10;;
13463;SDS011;6804;48.774;9.174;2023-12-20T13:13:44;4.47;;;1.60;;
13463;SDS011;6804;48.774;9.174;2023-12-20T13:16:13;5.70;;;1.90;;
13463;SDS011;6804;48.774;9.174;2023-12-20T13:18:45;3.40;;;1.37;;
13463;SDS011;6804;48.774;9.174;2023-12-20T13:21:15;3.80;;;1.83;;
13463;SDS011;6804;48.774;9.174;2023-12-20T13:23:46;3.30;;;1.50;;
13463;SDS011;6804;48.774;9.174;2023-12-20T13:26:14;5.10;;;1.90;;
13463;SDS011;6804;48.774;9.174;2023-12-20T13:28:44;5.57;;;2.20;;
13463;SDS011;6804;48.774;9.174;2023-12-20T13:31:13;3.83;;;1.50;;
13463;SDS011;6804;48.774;9.174;2023-12-20T13:33:44;5.47;;;1.37;;
13463;SDS011;6804;48.774;9.174;2023-12-20T13:36:12;2.27;;;1.20;;
13463;SDS011;6804;48.774;9.174;2023-12-20T13:38:43;4.47;;;1.43;;
13463;SDS011;6804;48.774;9.174;2023-12-20T13:41:14;3.17;;;1.20;;
13463;SDS011;6804;48.774;9.174;2023-12-20T13:43:43;4.40;;;1.57;;
13463;SDS011;6804;48.774;9.174;2023-12-20T13:46:12;4.70;;;1.30;;
13463;SDS011;6804;48.774;9.174;2023-12-20T13:48:43;4.20;;;2.10;;
13463;SDS011;6804;48.774;9.174;2023-12-20T13:51:17;2.10;;;1.50;;
13463;SDS011;6804;48.774;9.174;2023-12-20T13:53:46;2.40;;;1.30;;
13463;SDS011;6804;48.774;9.174;2023-12-20T13:56:15;3.57;;;1.70;;
13463;SDS011;6804;48.774;9.174;2023-12-20T13:58:46;3.03;;;1.37;;
13463;SDS011;6804;48.774;9.174;2023-12-20T14:01:15;5.53;;;1.70;;
13463;SDS011;6804;48.774;9.174;2023-12-20T14:03:44;3.03;;;1.70;;
13463;SDS011;6804;48.774;9.174;2023-12-20T14:06:19;4.83;;;2.73;;
13463;SDS011;6804;48.774;9.174;2023-12-20T14:08:48;5.33;;;2.03;;
13463;SDS011;6804;48.774;9.174;2023-12-20T14:11:16;3.60;;;1.60;;
13463;SDS011;6804;48.774;9.174;2023-12-20T14:13:48;4.60;;;1.40;;
13463;SDS011;6804;48.774;9.174;2023-12-20T14:16:16;3.80;;;1.60;;
13463;SDS011;6804;48.774;9.174;2023-12-20T14:18:48;5.57;;;1.73;;
13463;SDS011;6804;48.774;9.174;2023-12-20T14:21:17;2.67;;;1.60;;
13463;SDS011;6804;48.774;9.174;2023-12-20T14:23:49;3.63;;;1.43;;
13463;SDS011;6804;48.774;9.174;2023-12-20T14:26:18;2.47;;;1.17;;
13463;SDS011;6804;48.774;9.174;2023-12-20T14:28:47;2.07;;;1.20;;
13463;SDS011;6804;48.774;9.174;2023-12-20T14:31:15;3.47;;;1.70;;
13463;SDS011;6804;48.774;9.174;2023-12-20T14:33:44;6.77;;;1.57;;
13463;SDS011;6804;48.774;9.174;2023-12-20T14:36:17;3.07;;;1.63;;
13463;SDS011;6804;48.774;9.174;2023-12-20T14:38:47;4.00;;;1.10;;
13463;SDS011;6804;48.774;9.174;2023-12-20T14:41:16;2.30;;;1.40;;
13463;SDS011;6804;48.774;9.174;2023-12-20T14:43:45;5.43;;;1.50;;
13463;SDS011;6804;48.774;9.174;2023-12-20T14:46:17;2.87;;;1.10;;
13463;SDS011;6804;48.774;9.174;2023-12-20T14:48:46;3.03;;;1.37;;
13463;SDS011;6804;48.774;9.174;2023-12-20T14:51:20;4.63;;;1.70;;
13463;SDS011;6804;48.774;9.174;2023-12-20T14:53:48;3.23;;;1.43;;
13463;SDS011;6804;48.774;9.174;2023-12-20T14:56:16;4.47;;;1.67;;
13463;SDS011;6804;48.774;9.174;2023-12-20T14:58:45;4.80;;;1.77;;
13463;SDS011;6804;48.774;9.174;2023-12-20T15:01:14;7.63;;;3.30;;
13463;SDS011;6804;48.774;9.174;2023-12-20T15:03:46;4.63;;;2.40;;
13463;SDS011;6804;48.774;9.174;2023-12-20T15:06:20;4.70;;;2.50;;
13463;SDS011;6804;48.774;9.174;2023-12-20T15:08:49;5.40;;;2.53;;
13463;SDS011;6804;48.774;9.174;2023-12-20T15:11:18;4.40;;;2.13;;
13463;SDS011;6804;48.774;9.174;2023-12-20T15:13:48;3.23;;;2.00;;
13463;SDS011;6804;48.774;9.174;2023-12-20T15:16:21;2.53;;;1.50;;
13463;SDS011;6804;48.774;9.174;2023-12-20T15:18:50;4.33;;;1.90;;
13463;SDS011;6804;48.774;9.174;2023-12-20T15:21:20;2.53;;;1.20;;
13463;SDS011;6804;48.774;9.174;2023-12-20T15:23:59;3.20;;;1.60;;
13463;SDS011;6804;48.774;9.174;2023-12-20T15:26:39;4.93;;;1.90;;
13463;SDS011;6804;48.774;9.174;2023-12-20T15:29:09;6.10;;;2.40;;
13463;SDS011;6804;48.774;9.174;2023-12-20T15:31:41;5.13;;;3.17;;
13463;SDS011;6804;48.774;9.174;2023-12-20T15:34:10;4.93;;;2.00;;
13463;SDS011;6804;48.774;9.174;2023-12-20T15:36:43;3.70;;;1.80;;
13463;SDS011;6804;48.774;9.174;2023-12-20T15:39:15;3.77;;;1.30;;
13463;SDS011;6804;48.774;9.174;2023-12-20T15:41:43;4.43;;;1.87;;